Pleasanton, CA

2:51 PM PDT on September 20, 2014 (GMT -0700)
Livermore Municipal | Change Station
CLOSE
Current Station
Airport
Location: Livermore,
Elevation: 397 ft
Nearby Weather Stations

Elev 397 ft 37.69 °N, 121.81 °W | Updated 58 minutes ago

Clear
Clear
84 °F
Feels Like 83 °F
N
12
Wind Variable Wind from WNW

Today
High -- | Low -- °F
--% Chance of Precip.
Yesterday
High -- | Low -- °F
Precip. -- in
6:53 AM 7:07 PM
Waning Crescent, 10% visible
Pressure 29.87 in
Visibility 10.0 miles
Clouds Clear
Heat Index 83 °F
Dew Point 56 °F
Humidity 38%
Rainfall 0.00 in
Snow Depth 0 in , 0 in , 0 in
UV 8 out of 12
Pollen 4.00 out of 12
PM2.5 Good
Flu Activity Not available.
METAR KLVK 202053Z 29010KT 10SM CLR 29/13 A2988 RMK AO2 SLP114 T02890133 58016

More Conditions Fewer Conditions

Pressure 29.87 in
Visibility 10.0 miles
Clouds Clear
Heat Index 83 °F
Dew Point 56 °F
Humidity 38%
Rainfall 0.00 in
Snow Depth 0 in , 0 in , 0 in
UV 8 out of 12
Pollen 4.00 out of 12
PM2.5 Good
Flu Activity Not available.
METAR KLVK 202053Z 29010KT 10SM CLR 29/13 A2988 RMK AO2 SLP114 T02890133 58016

More Conditions Fewer Conditions

10-Day Weather Forecast

Almanac

Astronomy

Sep. 20, 2014 Rise Set
Actual Time 6:53 AM PDT 7:07 PM PDT
Civil Twilight 6:27 AM PDT 7:33 PM PDT
Nautical Twilight 5:56 AM PDT 8:04 PM PDT
Astronomical Twilight 5:25 AM PDT 8:35 PM PDT
Moon 3:40 AM PDT 5:11 PM PDT
Length of Visible Light 13h 06m
Length of Day
12h 13m
Tomorrow will be 2m 25s shorter.
Waning Crescent, 10% of the Moon is Illuminated
Today
Waning Crescent
Sep 24
New
Oct 1
First Quarter
Oct 8
Full
Oct 15
Last Quarter

Today's Extremes

State Highs State Lows

Community

WunderPhotos

Upload Photos

1,754,962 photos uploaded!

WunderBlogs® & News

Nearby

Air Quality

  Air Quality AQ Index Pollutant
Yesterday Good
OZONE
Yesterday Good
PM2.5
Current Good
PM2.5
Saturday Moderate
PM2.5
Sunday Moderate
PM2.5
Monday Good
OZONE
Tuesday Good
OZONE
Wednesday Good
OZONE
Thursday Good
OZONE

Snow Depth

Station Depth Elevation
CSS Lab 0 in 6900 ft
Burnside Lake 0 in 8139 ft
Summit Meadow 0 in 9122 ft
Leavitt Meadows 0 in 7200 ft
Adin Mountain 0 in 6200 ft

Earthquake Activity

City Distance Mag. Time & Date
Livermore, California 7 miles 2.6 3:37 AM PDT
2014-09-19
The Geysers, California 88 miles 2.5 11:29 PM PDT
2014-09-17
Minimum magnitude displayed is 2.5.

Coastal Water Temperatures

Place Temperature
No Stations Reporting

Nearby Weather Stations